sensor_id;sensor_type;location;lat;lon;timestamp;P1;durP1;ratioP1;P2;durP2;ratioP2
46266;SDS011;31998;48.798;15.066;2022-10-12T00:01:14;11.60;;;5.90;;
46266;SDS011;31998;48.798;15.066;2022-10-12T00:03:40;9.73;;;5.80;;
46266;SDS011;31998;48.798;15.066;2022-10-12T00:06:09;7.50;;;6.03;;
46266;SDS011;31998;48.798;15.066;2022-10-12T00:08:38;7.73;;;6.73;;
46266;SDS011;31998;48.798;15.066;2022-10-12T00:11:05;9.93;;;7.90;;
46266;SDS011;31998;48.798;15.066;2022-10-12T00:13:31;23.73;;;6.27;;
46266;SDS011;31998;48.798;15.066;2022-10-12T00:16:00;7.67;;;5.87;;
46266;SDS011;31998;48.798;15.066;2022-10-12T00:18:30;11.83;;;7.13;;
46266;SDS011;31998;48.798;15.066;2022-10-12T00:21:03;6.40;;;5.87;;
46266;SDS011;31998;48.798;15.066;2022-10-12T00:23:34;6.00;;;4.93;;
46266;SDS011;31998;48.798;15.066;2022-10-12T00:26:05;7.00;;;6.37;;
46266;SDS011;31998;48.798;15.066;2022-10-12T00:28:32;6.87;;;5.90;;
46266;SDS011;31998;48.798;15.066;2022-10-12T00:30:58;11.30;;;6.10;;
46266;SDS011;31998;48.798;15.066;2022-10-12T00:33:23;9.13;;;6.20;;
46266;SDS011;31998;48.798;15.066;2022-10-12T00:35:49;6.43;;;5.10;;
46266;SDS011;31998;48.798;15.066;2022-10-12T00:38:14;10.37;;;5.23;;
46266;SDS011;31998;48.798;15.066;2022-10-12T00:40:40;6.50;;;5.90;;
46266;SDS011;31998;48.798;15.066;2022-10-12T00:43:25;9.07;;;5.50;;
46266;SDS011;31998;48.798;15.066;2022-10-12T00:45:54;5.67;;;5.17;;
46266;SDS011;31998;48.798;15.066;2022-10-12T00:48:20;10.70;;;5.90;;
46266;SDS011;31998;48.798;15.066;2022-10-12T00:50:47;5.00;;;4.67;;
46266;SDS011;31998;48.798;15.066;2022-10-12T00:53:14;8.73;;;4.90;;
46266;SDS011;31998;48.798;15.066;2022-10-12T00:55:48;6.70;;;5.10;;
46266;SDS011;31998;48.798;15.066;2022-10-12T00:58:18;6.30;;;4.90;;
46266;SDS011;31998;48.798;15.066;2022-10-12T01:00:44;5.13;;;4.83;;
46266;SDS011;31998;48.798;15.066;2022-10-12T01:03:11;7.80;;;4.70;;
46266;SDS011;31998;48.798;15.066;2022-10-12T01:05:39;5.70;;;4.83;;
46266;SDS011;31998;48.798;15.066;2022-10-12T01:08:05;7.60;;;4.73;;
46266;SDS011;31998;48.798;15.066;2022-10-12T01:10:30;6.33;;;4.97;;
46266;SDS011;31998;48.798;15.066;2022-10-12T01:12:56;9.10;;;5.67;;
46266;SDS011;31998;48.798;15.066;2022-10-12T01:15:22;5.20;;;4.70;;
46266;SDS011;31998;48.798;15.066;2022-10-12T01:18:05;6.60;;;5.60;;
46266;SDS011;31998;48.798;15.066;2022-10-12T01:23:27;6.50;;;5.87;;
46266;SDS011;31998;48.798;15.066;2022-10-12T01:31:52;8.73;;;4.33;;
46266;SDS011;31998;48.798;15.066;2022-10-12T01:34:30;11.43;;;5.30;;
46266;SDS011;31998;48.798;15.066;2022-10-12T01:37:07;5.67;;;4.73;;
46266;SDS011;31998;48.798;15.066;2022-10-12T01:39:40;5.27;;;4.87;;
46266;SDS011;31998;48.798;15.066;2022-10-12T01:42:15;10.07;;;5.27;;
46266;SDS011;31998;48.798;15.066;2022-10-12T01:44:45;9.33;;;5.23;;
46266;SDS011;31998;48.798;15.066;2022-10-12T01:47:10;10.17;;;5.43;;
46266;SDS011;31998;48.798;15.066;2022-10-12T01:49:36;9.50;;;6.33;;
46266;SDS011;31998;48.798;15.066;2022-10-12T02:00:29;8.40;;;6.33;;
46266;SDS011;31998;48.798;15.066;2022-10-12T02:05:53;6.67;;;5.97;;
46266;SDS011;31998;48.798;15.066;2022-10-12T02:08:35;15.40;;;6.17;;
46266;SDS011;31998;48.798;15.066;2022-10-12T02:11:06;8.43;;;6.33;;
46266;SDS011;31998;48.798;15.066;2022-10-12T02:13:38;7.47;;;6.20;;
46266;SDS011;31998;48.798;15.066;2022-10-12T02:16:08;7.23;;;6.53;;
46266;SDS011;31998;48.798;15.066;2022-10-12T02:18:39;6.07;;;5.50;;
46266;SDS011;31998;48.798;15.066;2022-10-12T02:21:08;9.83;;;5.33;;
46266;SDS011;31998;48.798;15.066;2022-10-12T02:23:37;6.00;;;5.40;;
46266;SDS011;31998;48.798;15.066;2022-10-12T02:26:03;5.23;;;4.83;;
46266;SDS011;31998;48.798;15.066;2022-10-12T02:28:30;5.27;;;4.97;;
46266;SDS011;31998;48.798;15.066;2022-10-12T02:33:56;9.30;;;5.87;;
46266;SDS011;31998;48.798;15.066;2022-10-12T02:36:33;5.93;;;5.33;;
46266;SDS011;31998;48.798;15.066;2022-10-12T02:39:27;6.07;;;5.37;;
46266;SDS011;31998;48.798;15.066;2022-10-12T02:41:56;6.47;;;5.87;;
46266;SDS011;31998;48.798;15.066;2022-10-12T02:44:32;7.93;;;5.23;;
46266;SDS011;31998;48.798;15.066;2022-10-12T02:47:01;10.23;;;6.00;;
46266;SDS011;31998;48.798;15.066;2022-10-12T02:49:30;6.17;;;5.50;;
46266;SDS011;31998;48.798;15.066;2022-10-12T02:51:56;6.23;;;5.73;;
46266;SDS011;31998;48.798;15.066;2022-10-12T02:54:22;6.60;;;6.00;;
46266;SDS011;31998;48.798;15.066;2022-10-12T02:56:47;5.60;;;5.30;;
46266;SDS011;31998;48.798;15.066;2022-10-12T02:59:13;5.23;;;4.80;;
46266;SDS011;31998;48.798;15.066;2022-10-12T03:01:40;5.30;;;4.80;;
46266;SDS011;31998;48.798;15.066;2022-10-12T03:04:06;7.10;;;6.10;;
46266;SDS011;31998;48.798;15.066;2022-10-12T03:06:31;8.67;;;6.50;;
46266;SDS011;31998;48.798;15.066;2022-10-12T03:08:56;6.90;;;5.70;;
46266;SDS011;31998;48.798;15.066;2022-10-12T03:11:22;11.40;;;6.27;;
46266;SDS011;31998;48.798;15.066;2022-10-12T03:13:51;7.07;;;6.43;;
46266;SDS011;31998;48.798;15.066;2022-10-12T03:16:19;6.90;;;6.20;;
46266;SDS011;31998;48.798;15.066;2022-10-12T03:18:45;5.77;;;4.97;;
46266;SDS011;31998;48.798;15.066;2022-10-12T03:21:11;6.00;;;5.50;;
46266;SDS011;31998;48.798;15.066;2022-10-12T03:23:37;5.67;;;5.20;;
46266;SDS011;31998;48.798;15.066;2022-10-12T03:26:03;5.50;;;5.20;;
46266;SDS011;31998;48.798;15.066;2022-10-12T03:28:29;6.20;;;5.70;;
46266;SDS011;31998;48.798;15.066;2022-10-12T03:30:54;5.33;;;4.90;;
46266;SDS011;31998;48.798;15.066;2022-10-12T03:33:20;13.33;;;5.97;;
46266;SDS011;31998;48.798;15.066;2022-10-12T03:35:46;4.60;;;4.30;;
46266;SDS011;31998;48.798;15.066;2022-10-12T03:38:12;6.77;;;5.37;;
46266;SDS011;31998;48.798;15.066;2022-10-12T03:40:39;126.13;;;8.43;;
46266;SDS011;31998;48.798;15.066;2022-10-12T03:43:05;5.93;;;5.43;;
46266;SDS011;31998;48.798;15.066;2022-10-12T03:45:31;10.43;;;5.80;;
46266;SDS011;31998;48.798;15.066;2022-10-12T03:47:56;7.63;;;5.57;;
46266;SDS011;31998;48.798;15.066;2022-10-12T03:50:22;6.40;;;5.10;;
46266;SDS011;31998;48.798;15.066;2022-10-12T03:52:47;11.40;;;5.97;;
46266;SDS011;31998;48.798;15.066;2022-10-12T03:55:13;7.77;;;5.00;;
46266;SDS011;31998;48.798;15.066;2022-10-12T03:57:38;6.77;;;6.17;;
46266;SDS011;31998;48.798;15.066;2022-10-12T04:00:04;10.03;;;4.20;;
46266;SDS011;31998;48.798;15.066;2022-10-12T04:02:31;6.93;;;5.00;;
46266;SDS011;31998;48.798;15.066;2022-10-12T04:04:56;4.83;;;4.10;;
46266;SDS011;31998;48.798;15.066;2022-10-12T04:07:21;8.50;;;4.60;;
46266;SDS011;31998;48.798;15.066;2022-10-12T04:09:47;4.40;;;4.00;;
46266;SDS011;31998;48.798;15.066;2022-10-12T04:12:12;4.40;;;4.10;;
46266;SDS011;31998;48.798;15.066;2022-10-12T04:14:38;3.93;;;3.80;;
46266;SDS011;31998;48.798;15.066;2022-10-12T04:17:03;10.13;;;4.80;;
46266;SDS011;31998;48.798;15.066;2022-10-12T04:19:29;3.60;;;3.40;;
46266;SDS011;31998;48.798;15.066;2022-10-12T04:21:55;3.83;;;3.70;;
46266;SDS011;31998;48.798;15.066;2022-10-12T04:24:20;6.33;;;3.70;;
46266;SDS011;31998;48.798;15.066;2022-10-12T04:26:45;4.27;;;4.03;;
46266;SDS011;31998;48.798;15.066;2022-10-12T04:29:11;4.63;;;4.30;;
46266;SDS011;31998;48.798;15.066;2022-10-12T04:31:40;5.27;;;4.73;;
46266;SDS011;31998;48.798;15.066;2022-10-12T04:34:05;9.07;;;5.10;;
46266;SDS011;31998;48.798;15.066;2022-10-12T04:36:31;21.63;;;5.53;;
46266;SDS011;31998;48.798;15.066;2022-10-12T04:38:56;5.40;;;5.00;;
46266;SDS011;31998;48.798;15.066;2022-10-12T04:41:21;10.27;;;5.40;;
46266;SDS011;31998;48.798;15.066;2022-10-12T04:43:47;6.97;;;5.70;;
46266;SDS011;31998;48.798;15.066;2022-10-12T04:46:12;10.03;;;5.50;;
46266;SDS011;31998;48.798;15.066;2022-10-12T04:48:38;6.70;;;5.70;;
46266;SDS011;31998;48.798;15.066;2022-10-12T04:51:04;11.80;;;5.67;;
46266;SDS011;31998;48.798;15.066;2022-10-12T04:53:30;5.90;;;5.50;;
46266;SDS011;31998;48.798;15.066;2022-10-12T04:55:55;7.60;;;6.07;;
46266;SDS011;31998;48.798;15.066;2022-10-12T04:58:21;15.50;;;7.20;;
46266;SDS011;31998;48.798;15.066;2022-10-12T05:00:46;6.70;;;6.10;;
46266;SDS011;31998;48.798;15.066;2022-10-12T05:03:12;6.60;;;5.50;;
46266;SDS011;31998;48.798;15.066;2022-10-12T05:05:38;5.37;;;5.07;;
46266;SDS011;31998;48.798;15.066;2022-10-12T05:08:03;5.27;;;4.93;;
46266;SDS011;31998;48.798;15.066;2022-10-12T05:10:30;8.93;;;4.87;;
46266;SDS011;31998;48.798;15.066;2022-10-12T05:12:55;8.67;;;5.23;;
46266;SDS011;31998;48.798;15.066;2022-10-12T05:15:20;8.73;;;4.87;;
46266;SDS011;31998;48.798;15.066;2022-10-12T05:17:46;18.73;;;5.97;;
46266;SDS011;31998;48.798;15.066;2022-10-12T05:20:11;6.87;;;5.97;;
46266;SDS011;31998;48.798;15.066;2022-10-12T05:22:37;6.20;;;5.60;;
46266;SDS011;31998;48.798;15.066;2022-10-12T05:25:02;6.20;;;5.10;;
46266;SDS011;31998;48.798;15.066;2022-10-12T05:27:28;8.23;;;5.97;;
46266;SDS011;31998;48.798;15.066;2022-10-12T05:29:54;6.83;;;5.40;;
46266;SDS011;31998;48.798;15.066;2022-10-12T05:32:20;6.23;;;5.73;;
46266;SDS011;31998;48.798;15.066;2022-10-12T05:34:46;5.13;;;4.63;;
46266;SDS011;31998;48.798;15.066;2022-10-12T05:37:11;4.97;;;4.57;;
46266;SDS011;31998;48.798;15.066;2022-10-12T05:39:36;8.23;;;5.30;;
46266;SDS011;31998;48.798;15.066;2022-10-12T05:42:02;10.30;;;6.47;;
46266;SDS011;31998;48.798;15.066;2022-10-12T05:44:28;8.70;;;6.07;;
46266;SDS011;31998;48.798;15.066;2022-10-12T05:46:53;15.70;;;5.47;;
46266;SDS011;31998;48.798;15.066;2022-10-12T05:49:18;8.30;;;5.53;;
46266;SDS011;31998;48.798;15.066;2022-10-12T05:51:45;7.30;;;5.50;;
46266;SDS011;31998;48.798;15.066;2022-10-12T05:54:10;15.07;;;7.00;;
46266;SDS011;31998;48.798;15.066;2022-10-12T05:56:36;14.60;;;6.67;;
46266;SDS011;31998;48.798;15.066;2022-10-12T05:59:01;12.73;;;5.90;;
46266;SDS011;31998;48.798;15.066;2022-10-12T06:01:28;11.30;;;5.93;;
46266;SDS011;31998;48.798;15.066;2022-10-12T06:03:53;10.33;;;4.83;;
46266;SDS011;31998;48.798;15.066;2022-10-12T06:06:19;7.20;;;5.30;;
46266;SDS011;31998;48.798;15.066;2022-10-12T06:08:44;4.83;;;4.50;;
46266;SDS011;31998;48.798;15.066;2022-10-12T06:11:10;9.07;;;5.03;;
46266;SDS011;31998;48.798;15.066;2022-10-12T06:13:35;7.57;;;4.90;;
46266;SDS011;31998;48.798;15.066;2022-10-12T06:16:01;10.20;;;4.63;;
46266;SDS011;31998;48.798;15.066;2022-10-12T06:18:26;9.60;;;5.90;;
46266;SDS011;31998;48.798;15.066;2022-10-12T06:20:52;9.47;;;5.87;;
46266;SDS011;31998;48.798;15.066;2022-10-12T06:23:19;18.13;;;4.67;;
46266;SDS011;31998;48.798;15.066;2022-10-12T06:25:46;14.13;;;5.60;;
46266;SDS011;31998;48.798;15.066;2022-10-12T06:28:12;10.17;;;6.80;;
46266;SDS011;31998;48.798;15.066;2022-10-12T06:30:43;10.20;;;5.50;;
46266;SDS011;31998;48.798;15.066;2022-10-12T06:33:08;8.83;;;5.03;;
46266;SDS011;31998;48.798;15.066;2022-10-12T06:35:34;11.60;;;5.07;;
46266;SDS011;31998;48.798;15.066;2022-10-12T06:37:59;13.03;;;5.13;;
46266;SDS011;31998;48.798;15.066;2022-10-12T06:40:25;10.27;;;4.97;;
46266;SDS011;31998;48.798;15.066;2022-10-12T06:42:50;13.47;;;4.73;;
46266;SDS011;31998;48.798;15.066;2022-10-12T06:45:16;12.47;;;5.10;;
46266;SDS011;31998;48.798;15.066;2022-10-12T06:47:41;8.70;;;4.80;;
46266;SDS011;31998;48.798;15.066;2022-10-12T06:50:07;8.20;;;5.00;;
46266;SDS011;31998;48.798;15.066;2022-10-12T06:52:33;11.30;;;5.07;;
46266;SDS011;31998;48.798;15.066;2022-10-12T06:54:59;11.03;;;4.60;;
46266;SDS011;31998;48.798;15.066;2022-10-12T06:57:24;7.70;;;4.40;;
46266;SDS011;31998;48.798;15.066;2022-10-12T06:59:50;7.57;;;5.53;;
46266;SDS011;31998;48.798;15.066;2022-10-12T07:02:15;7.20;;;4.80;;
46266;SDS011;31998;48.798;15.066;2022-10-12T07:04:40;7.30;;;4.20;;
46266;SDS011;31998;48.798;15.066;2022-10-12T07:07:06;14.30;;;5.60;;
46266;SDS011;31998;48.798;15.066;2022-10-12T07:09:31;11.30;;;5.83;;
46266;SDS011;31998;48.798;15.066;2022-10-12T07:11:57;10.33;;;4.50;;
46266;SDS011;31998;48.798;15.066;2022-10-12T07:14:22;10.67;;;4.70;;
46266;SDS011;31998;48.798;15.066;2022-10-12T07:16:47;13.53;;;4.90;;
46266;SDS011;31998;48.798;15.066;2022-10-12T07:19:13;9.80;;;4.50;;
46266;SDS011;31998;48.798;15.066;2022-10-12T07:21:38;9.23;;;5.80;;
46266;SDS011;31998;48.798;15.066;2022-10-12T07:24:04;8.50;;;5.00;;
46266;SDS011;31998;48.798;15.066;2022-10-12T07:26:30;8.67;;;5.13;;
46266;SDS011;31998;48.798;15.066;2022-10-12T07:28:55;8.37;;;5.20;;
46266;SDS011;31998;48.798;15.066;2022-10-12T07:31:22;6.10;;;4.17;;
46266;SDS011;31998;48.798;15.066;2022-10-12T07:33:47;9.37;;;4.67;;
46266;SDS011;31998;48.798;15.066;2022-10-12T07:36:13;7.80;;;5.00;;
46266;SDS011;31998;48.798;15.066;2022-10-12T07:38:38;7.13;;;5.53;;
46266;SDS011;31998;48.798;15.066;2022-10-12T07:41:04;12.53;;;4.50;;
46266;SDS011;31998;48.798;15.066;2022-10-12T07:43:30;6.30;;;4.20;;
46266;SDS011;31998;48.798;15.066;2022-10-12T07:45:55;11.50;;;4.03;;
46266;SDS011;31998;48.798;15.066;2022-10-12T07:48:21;5.97;;;5.00;;
46266;SDS011;31998;48.798;15.066;2022-10-12T07:50:47;7.53;;;4.13;;
46266;SDS011;31998;48.798;15.066;2022-10-12T07:53:13;10.53;;;4.50;;
46266;SDS011;31998;48.798;15.066;2022-10-12T07:55:38;12.53;;;3.80;;
46266;SDS011;31998;48.798;15.066;2022-10-12T07:58:04;9.47;;;4.37;;
46266;SDS011;31998;48.798;15.066;2022-10-12T08:00:30;6.87;;;4.60;;
46266;SDS011;31998;48.798;15.066;2022-10-12T08:02:56;10.73;;;5.87;;
46266;SDS011;31998;48.798;15.066;2022-10-12T08:05:22;6.63;;;3.30;;
46266;SDS011;31998;48.798;15.066;2022-10-12T08:07:48;8.80;;;3.40;;
46266;SDS011;31998;48.798;15.066;2022-10-12T08:10:15;12.13;;;3.43;;
46266;SDS011;31998;48.798;15.066;2022-10-12T08:12:41;9.07;;;4.30;;
46266;SDS011;31998;48.798;15.066;2022-10-12T08:15:08;5.33;;;3.80;;
46266;SDS011;31998;48.798;15.066;2022-10-12T08:17:33;3.57;;;3.03;;
46266;SDS011;31998;48.798;15.066;2022-10-12T08:19:59;9.87;;;3.60;;
46266;SDS011;31998;48.798;15.066;2022-10-12T08:22:24;4.33;;;3.93;;
46266;SDS011;31998;48.798;15.066;2022-10-12T08:24:49;8.50;;;3.43;;
46266;SDS011;31998;48.798;15.066;2022-10-12T08:27:15;5.33;;;3.10;;
46266;SDS011;31998;48.798;15.066;2022-10-12T08:29:40;8.67;;;3.77;;
46266;SDS011;31998;48.798;15.066;2022-10-12T08:32:05;10.33;;;3.10;;
46266;SDS011;31998;48.798;15.066;2022-10-12T08:34:31;5.20;;;3.10;;
46266;SDS011;31998;48.798;15.066;2022-10-12T08:36:57;17.43;;;4.13;;
46266;SDS011;31998;48.798;15.066;2022-10-12T08:39:23;16.67;;;3.97;;
46266;SDS011;31998;48.798;15.066;2022-10-12T08:47:37;4.43;;;3.43;;
46266;SDS011;31998;48.798;15.066;2022-10-12T08:53:04;17.10;;;5.20;;
46266;SDS011;31998;48.798;15.066;2022-10-12T08:55:40;7.20;;;3.60;;
46266;SDS011;31998;48.798;15.066;2022-10-12T08:58:16;4.10;;;3.70;;
46266;SDS011;31998;48.798;15.066;2022-10-12T09:00:46;8.70;;;4.30;;
46266;SDS011;31998;48.798;15.066;2022-10-12T09:03:25;8.53;;;4.57;;
46266;SDS011;31998;48.798;15.066;2022-10-12T09:06:06;9.50;;;3.83;;
46266;SDS011;31998;48.798;15.066;2022-10-12T09:08:49;6.73;;;3.53;;
46266;SDS011;31998;48.798;15.066;2022-10-12T09:14:05;6.27;;;3.63;;
46266;SDS011;31998;48.798;15.066;2022-10-12T09:16:36;3.97;;;3.67;;
46266;SDS011;31998;48.798;15.066;2022-10-12T09:21:40;10.77;;;4.40;;
46266;SDS011;31998;48.798;15.066;2022-10-12T09:24:09;4.80;;;2.90;;
46266;SDS011;31998;48.798;15.066;2022-10-12T09:26:49;14.37;;;3.80;;
46266;SDS011;31998;48.798;15.066;2022-10-12T09:29:29;14.30;;;4.43;;
46266;SDS011;31998;48.798;15.066;2022-10-12T09:31:59;10.03;;;3.77;;
46266;SDS011;31998;48.798;15.066;2022-10-12T09:34:26;9.23;;;4.50;;
46266;SDS011;31998;48.798;15.066;2022-10-12T09:36:52;9.60;;;3.60;;
46266;SDS011;31998;48.798;15.066;2022-10-12T09:39:20;9.93;;;4.63;;
46266;SDS011;31998;48.798;15.066;2022-10-12T09:41:52;5.47;;;3.87;;
46266;SDS011;31998;48.798;15.066;2022-10-12T09:44:41;5.13;;;4.03;;
46266;SDS011;31998;48.798;15.066;2022-10-12T09:47:29;5.53;;;4.00;;
46266;SDS011;31998;48.798;15.066;2022-10-12T09:49:56;4.43;;;4.03;;
46266;SDS011;31998;48.798;15.066;2022-10-12T09:52:25;4.90;;;4.00;;
46266;SDS011;31998;48.798;15.066;2022-10-12T09:54:55;6.87;;;4.37;;
46266;SDS011;31998;48.798;15.066;2022-10-12T09:59:58;6.20;;;4.10;;
46266;SDS011;31998;48.798;15.066;2022-10-12T10:02:26;9.67;;;3.13;;
46266;SDS011;31998;48.798;15.066;2022-10-12T10:04:53;3.57;;;3.30;;
46266;SDS011;31998;48.798;15.066;2022-10-12T10:07:20;3.90;;;3.60;;
46266;SDS011;31998;48.798;15.066;2022-10-12T10:10:14;9.50;;;4.00;;
46266;SDS011;31998;48.798;15.066;2022-10-12T10:12:48;4.87;;;3.37;;
46266;SDS011;31998;48.798;15.066;2022-10-12T10:15:18;3.80;;;3.50;;
46266;SDS011;31998;48.798;15.066;2022-10-12T10:17:46;3.70;;;3.40;;
46266;SDS011;31998;48.798;15.066;2022-10-12T10:20:25;6.70;;;4.17;;
46266;SDS011;31998;48.798;15.066;2022-10-12T10:23:05;5.13;;;3.67;;
46266;SDS011;31998;48.798;15.066;2022-10-12T10:25:30;4.43;;;3.80;;
46266;SDS011;31998;48.798;15.066;2022-10-12T10:28:10;8.53;;;4.10;;
46266;SDS011;31998;48.798;15.066;2022-10-12T10:30:59;6.73;;;4.10;;
46266;SDS011;31998;48.798;15.066;2022-10-12T10:33:27;5.80;;;4.17;;
46266;SDS011;31998;48.798;15.066;2022-10-12T10:36:02;5.60;;;3.67;;
46266;SDS011;31998;48.798;15.066;2022-10-12T10:38:50;13.90;;;3.97;;
46266;SDS011;31998;48.798;15.066;2022-10-12T10:41:19;4.27;;;3.80;;
46266;SDS011;31998;48.798;15.066;2022-10-12T10:43:51;4.47;;;3.70;;
46266;SDS011;31998;48.798;15.066;2022-10-12T10:46:21;4.60;;;4.10;;
46266;SDS011;31998;48.798;15.066;2022-10-12T10:49:18;4.10;;;3.80;;
46266;SDS011;31998;48.798;15.066;2022-10-12T10:51:49;7.87;;;4.43;;
46266;SDS011;31998;48.798;15.066;2022-10-12T10:56:45;4.00;;;3.30;;
46266;SDS011;31998;48.798;15.066;2022-10-12T10:59:15;8.37;;;4.40;;
46266;SDS011;31998;48.798;15.066;2022-10-12T11:01:54;5.17;;;4.53;;
46266;SDS011;31998;48.798;15.066;2022-10-12T11:04:26;7.20;;;3.93;;
46266;SDS011;31998;48.798;15.066;2022-10-12T11:06:57;7.70;;;3.47;;
46266;SDS011;31998;48.798;15.066;2022-10-12T11:09:40;9.20;;;4.40;;
46266;SDS011;31998;48.798;15.066;2022-10-12T11:12:10;4.87;;;3.67;;
46266;SDS011;31998;48.798;15.066;2022-10-12T11:14:47;4.20;;;3.90;;
46266;SDS011;31998;48.798;15.066;2022-10-12T11:19:50;5.60;;;4.33;;
46266;SDS011;31998;48.798;15.066;2022-10-12T11:22:24;8.50;;;3.90;;
46266;SDS011;31998;48.798;15.066;2022-10-12T11:27:33;5.43;;;3.90;;
46266;SDS011;31998;48.798;15.066;2022-10-12T11:30:02;7.30;;;3.90;;
46266;SDS011;31998;48.798;15.066;2022-10-12T11:32:37;4.23;;;3.97;;
46266;SDS011;31998;48.798;15.066;2022-10-12T11:35:09;4.00;;;3.80;;
46266;SDS011;31998;48.798;15.066;2022-10-12T11:37:48;6.20;;;3.60;;
46266;SDS011;31998;48.798;15.066;2022-10-12T11:40:20;6.80;;;3.83;;
46266;SDS011;31998;48.798;15.066;2022-10-12T11:42:49;5.60;;;3.70;;
46266;SDS011;31998;48.798;15.066;2022-10-12T11:45:19;6.10;;;4.57;;
46266;SDS011;31998;48.798;15.066;2022-10-12T11:47:50;4.40;;;4.00;;
46266;SDS011;31998;48.798;15.066;2022-10-12T11:50:27;8.87;;;3.87;;
46266;SDS011;31998;48.798;15.066;2022-10-12T11:52:57;6.30;;;4.10;;
46266;SDS011;31998;48.798;15.066;2022-10-12T11:57:54;5.97;;;4.07;;
46266;SDS011;31998;48.798;15.066;2022-10-12T12:00:36;3.77;;;3.47;;
46266;SDS011;31998;48.798;15.066;2022-10-12T12:03:28;4.80;;;3.43;;
46266;SDS011;31998;48.798;15.066;2022-10-12T12:05:51;8.43;;;4.23;;
46266;SDS011;31998;48.798;15.066;2022-10-12T12:11:25;6.43;;;3.20;;
46266;SDS011;31998;48.798;15.066;2022-10-12T12:14:20;4.60;;;3.37;;
46266;SDS011;31998;48.798;15.066;2022-10-12T12:16:46;4.67;;;3.53;;
46266;SDS011;31998;48.798;15.066;2022-10-12T12:19:17;6.30;;;3.90;;
46266;SDS011;31998;48.798;15.066;2022-10-12T12:24:39;4.23;;;3.83;;
46266;SDS011;31998;48.798;15.066;2022-10-12T12:27:29;9.80;;;4.10;;
46266;SDS011;31998;48.798;15.066;2022-10-12T12:29:58;3.77;;;3.40;;
46266;SDS011;31998;48.798;15.066;2022-10-12T12:32:38;10.93;;;4.20;;
46266;SDS011;31998;48.798;15.066;2022-10-12T12:35:15;13.53;;;4.40;;
46266;SDS011;31998;48.798;15.066;2022-10-12T12:40:37;3.33;;;3.07;;
46266;SDS011;31998;48.798;15.066;2022-10-12T12:43:18;4.63;;;3.77;;
46266;SDS011;31998;48.798;15.066;2022-10-12T12:45:53;5.53;;;3.77;;
46266;SDS011;31998;48.798;15.066;2022-10-12T12:51:06;9.23;;;3.57;;
46266;SDS011;31998;48.798;15.066;2022-10-12T12:53:39;7.70;;;3.77;;
46266;SDS011;31998;48.798;15.066;2022-10-12T13:02:11;8.13;;;3.83;;
46266;SDS011;31998;48.798;15.066;2022-10-12T13:07:44;17.33;;;3.87;;
46266;SDS011;31998;48.798;15.066;2022-10-12T13:10:29;9.60;;;2.97;;
46266;SDS011;31998;48.798;15.066;2022-10-12T13:16:11;4.10;;;3.50;;
46266;SDS011;31998;48.798;15.066;2022-10-12T13:18:59;6.63;;;3.20;;
46266;SDS011;31998;48.798;15.066;2022-10-12T13:21:43;3.53;;;3.30;;
46266;SDS011;31998;48.798;15.066;2022-10-12T13:24:24;19.13;;;3.50;;
46266;SDS011;31998;48.798;15.066;2022-10-12T13:27:02;7.40;;;3.50;;
46266;SDS011;31998;48.798;15.066;2022-10-12T13:32:32;5.23;;;3.07;;
46266;SDS011;31998;48.798;15.066;2022-10-12T13:35:21;7.50;;;3.27;;
46266;SDS011;31998;48.798;15.066;2022-10-12T13:37:58;3.03;;;2.83;;
46266;SDS011;31998;48.798;15.066;2022-10-12T13:40:29;8.60;;;3.10;;
46266;SDS011;31998;48.798;15.066;2022-10-12T13:43:09;5.80;;;3.30;;
46266;SDS011;31998;48.798;15.066;2022-10-12T13:45:47;7.60;;;2.73;;
46266;SDS011;31998;48.798;15.066;2022-10-12T13:48:15;3.57;;;2.70;;
46266;SDS011;31998;48.798;15.066;2022-10-12T13:51:19;3.63;;;3.13;;
46266;SDS011;31998;48.798;15.066;2022-10-12T13:53:48;4.60;;;3.50;;
46266;SDS011;31998;48.798;15.066;2022-10-12T13:56:15;3.37;;;3.07;;
46266;SDS011;31998;48.798;15.066;2022-10-12T13:58:43;7.33;;;3.10;;
46266;SDS011;31998;48.798;15.066;2022-10-12T14:01:09;5.70;;;3.70;;
46266;SDS011;31998;48.798;15.066;2022-10-12T14:03:36;5.07;;;4.30;;
46266;SDS011;31998;48.798;15.066;2022-10-12T14:06:21;5.23;;;4.60;;
46266;SDS011;31998;48.798;15.066;2022-10-12T14:08:48;5.97;;;5.03;;
46266;SDS011;31998;48.798;15.066;2022-10-12T14:11:14;8.67;;;6.00;;
46266;SDS011;31998;48.798;15.066;2022-10-12T14:13:41;14.63;;;6.97;;
46266;SDS011;31998;48.798;15.066;2022-10-12T14:16:09;8.10;;;5.33;;
46266;SDS011;31998;48.798;15.066;2022-10-12T14:18:40;9.00;;;6.23;;
46266;SDS011;31998;48.798;15.066;2022-10-12T14:21:24;13.30;;;5.20;;
46266;SDS011;31998;48.798;15.066;2022-10-12T14:23:53;4.80;;;4.30;;
46266;SDS011;31998;48.798;15.066;2022-10-12T14:29:23;6.77;;;3.50;;
46266;SDS011;31998;48.798;15.066;2022-10-12T14:31:54;7.83;;;3.60;;
46266;SDS011;31998;48.798;15.066;2022-10-12T14:39:34;5.80;;;3.30;;
46266;SDS011;31998;48.798;15.066;2022-10-12T14:42:20;7.77;;;4.27;;
46266;SDS011;31998;48.798;15.066;2022-10-12T14:44:57;3.80;;;2.70;;
46266;SDS011;31998;48.798;15.066;2022-10-12T14:49:52;17.80;;;3.23;;
46266;SDS011;31998;48.798;15.066;2022-10-12T14:52:21;5.57;;;2.80;;
46266;SDS011;31998;48.798;15.066;2022-10-12T14:54:53;2.77;;;2.57;;
46266;SDS011;31998;48.798;15.066;2022-10-12T14:57:20;9.77;;;2.53;;
46266;SDS011;31998;48.798;15.066;2022-10-12T14:59:46;4.27;;;2.40;;
46266;SDS011;31998;48.798;15.066;2022-10-12T15:02:16;5.67;;;1.90;;
46266;SDS011;31998;48.798;15.066;2022-10-12T15:04:52;7.80;;;2.93;;
46266;SDS011;31998;48.798;15.066;2022-10-12T15:07:19;3.07;;;2.30;;
46266;SDS011;31998;48.798;15.066;2022-10-12T15:09:47;11.73;;;3.40;;
46266;SDS011;31998;48.798;15.066;2022-10-12T15:12:14;3.77;;;2.70;;
46266;SDS011;31998;48.798;15.066;2022-10-12T15:14:41;6.40;;;3.00;;
46266;SDS011;31998;48.798;15.066;2022-10-12T15:17:11;7.23;;;2.90;;
46266;SDS011;31998;48.798;15.066;2022-10-12T15:19:38;2.40;;;2.30;;
46266;SDS011;31998;48.798;15.066;2022-10-12T15:22:04;2.70;;;2.50;;
46266;SDS011;31998;48.798;15.066;2022-10-12T15:24:29;5.93;;;2.40;;
46266;SDS011;31998;48.798;15.066;2022-10-12T15:26:55;3.47;;;2.60;;
46266;SDS011;31998;48.798;15.066;2022-10-12T15:29:20;3.57;;;2.30;;
46266;SDS011;31998;48.798;15.066;2022-10-12T15:31:45;4.60;;;3.10;;
46266;SDS011;31998;48.798;15.066;2022-10-12T15:34:11;11.97;;;3.47;;
46266;SDS011;31998;48.798;15.066;2022-10-12T15:36:38;13.10;;;7.03;;
46266;SDS011;31998;48.798;15.066;2022-10-12T15:39:04;6.70;;;4.53;;
46266;SDS011;31998;48.798;15.066;2022-10-12T15:41:29;19.87;;;10.70;;
46266;SDS011;31998;48.798;15.066;2022-10-12T15:43:55;12.37;;;8.50;;
46266;SDS011;31998;48.798;15.066;2022-10-12T15:46:20;10.67;;;8.50;;
46266;SDS011;31998;48.798;15.066;2022-10-12T15:48:46;10.40;;;6.43;;
46266;SDS011;31998;48.798;15.066;2022-10-12T15:51:21;11.40;;;6.53;;
46266;SDS011;31998;48.798;15.066;2022-10-12T15:53:51;6.33;;;5.73;;
46266;SDS011;31998;48.798;15.066;2022-10-12T15:56:18;9.87;;;3.97;;
46266;SDS011;31998;48.798;15.066;2022-10-12T15:58:44;7.83;;;3.50;;
46266;SDS011;31998;48.798;15.066;2022-10-12T16:01:10;5.83;;;4.30;;
46266;SDS011;31998;48.798;15.066;2022-10-12T16:03:43;6.23;;;3.50;;
46266;SDS011;31998;48.798;15.066;2022-10-12T16:06:09;8.53;;;4.30;;
46266;SDS011;31998;48.798;15.066;2022-10-12T16:08:34;10.57;;;3.93;;
46266;SDS011;31998;48.798;15.066;2022-10-12T16:11:04;10.73;;;4.20;;